Cornwall, Canada
Current Conditions -  °F | °C
As of 8:53 PM on Sunday 21 Dec 2014 (Local Time) from KMSS Reporting Station
Overcast Overcast  
Wind Chill: 19°   Ceiling: 600
Heat Index: 19°   Visibility: 7mi
Dew Point: 15°   Wind: 0mph
Humidity: 85%   Direction: NA
Pressure: 30.4"   Gusts: NA
Location:  45.03°N, 74.72°W
Report Text: KMSS 220153Z AUTO 00000KT 7SM OVC006 M07/M09 A3040 RMK AO2 SLP302 T10721094
Loading
Personal Weather Stations






























Interactive Weather Map New forecast layout! Learn more

10-Day Weather Forecast

Advertisements
Track Severe Weather on mobile